Terminal Aerodrome Forecast
Issued by NWS

Home | Current Version | Previous Version | Text Only | Print | Product List | Glossary On
Versions: 1 2 3 4 5 6 7 8 9 10 11 12 13 14 15 16
000
FTAK31 PAJN 280525
TAFAJN
TAF
PAJN 280525Z 2806/2906 07005KT P6SM -SHRA FEW005 BKN035 OVC050
     FM281500 VRB05KT 6SM BR VCSH SCT005 BKN050
     FM281900 32005KT P6SM BKN050
     FM290000 32005KT P6SM FEW050=

USA.gov is the U.S. government's official web portal to all federal, state and local government web resources and services.